Time;durP1;ratioP1;P1;durP2;ratioP2;P2;SDS_P1;SDS_P2;PMS_P1;PMS_P2;Temp;Humidity;BMP_temperature;BMP_pressure;BME280_temperature;BME280_humidity;BME280_pressure;Samples;Min_cycle;Max_cycle;Signal;HPM_P1;HPM_P2
2021/12/16 00:07:38;;;;;;;;;;;;;;;;;;5071639;28;20360;-86
2021/12/16 00:32:17;;;;;;;;;;;;;;;;;;5063942;28;19966;-85
2021/12/16 00:34:12;;;;;;;;;;;;;;;;;;5064916;28;19919;-84
2021/12/16 00:36:39;;;;;;;;;;;;;;;;;;5061327;28;19913;-84
2021/12/16 00:39:07;;;;;;;;;;;;;;;;;;5060485;28;19946;-83
2021/12/16 00:41:33;;;;;;;;;;;;;;;;;;5067168;28;20306;-86
2021/12/16 00:45:01;;;;;;;;;;;;;;;;;;5067076;28;19916;-83
2021/12/16 00:47:50;;;;;;;;;;;;;;;;;;5068576;28;19918;-85
2021/12/16 00:49:49;;;;;;;;;;;;;;;;;;5065903;28;19916;-83
2021/12/16 00:55:09;;;;;;;;;;;;;;;;;;5060826;28;20443;-85
2021/12/16 00:57:38;;;;;;;;;;;;;;;;;;5066204;28;19920;-85
2021/12/16 01:00:05;;;;;;;;;;;;;;;;;;5067627;28;19912;-84
2021/12/16 01:33:35;;;;;;;;;;;;;;;;;;5068499;28;19917;-85
2021/12/16 01:51:14;;;;;;;;;;;;;;;;;;5070639;28;19916;-85
2021/12/16 01:57:13;;;;;;;;;;;;;;;;;;5068110;28;19923;-85
2021/12/16 01:59:16;;;;;;;;;;;;;;;;;;5062368;28;19971;-85
2021/12/16 02:01:41;;;;;;;;;;;;;;;;;;5080332;28;19918;-87
2021/12/16 02:04:16;;;;;;;;;;;;;;;;;;5067405;28;20295;-85
2021/12/16 02:07:11;;;;;;;;;;;;;;;;;;5064687;28;19916;-85
2021/12/16 02:09:42;;;;;;;;;;;;;;;;;;5069952;28;20363;-86
2021/12/16 02:12:38;;;;;;;;;;;;;;;;;;5062863;28;20248;-86
2021/12/16 02:36:30;;;;;;;;;;;;;;;;;;5044955;28;19916;-86
2021/12/16 02:38:59;;;;;;;;;;;;;;;;;;5085708;28;19916;-86
2021/12/16 02:41:24;;;;;;;;;;;;;;;;;;5071433;28;20382;-87
2021/12/16 02:49:02;;;;;;;;;;;;;;;;;;5065432;28;19935;-88
2021/12/16 02:51:28;;;;;;;;;;;;;;;;;;5065402;28;19916;-88
2021/12/16 02:53:57;;;;;;;;;;;;;;;;;;5081106;28;19912;-87
2021/12/16 02:56:22;;;;;;;;;;;;;;;;;;5065269;28;19912;-87
2021/12/16 02:58:52;;;;;;;;;;;;;;;;;;5065988;28;19928;-87
2021/12/16 03:01:20;;;;;;;;;;;;;;;;;;5064694;28;19919;-87
2021/12/16 03:03:46;;;;;;;;;;;;;;;;;;5061986;28;19976;-87
2021/12/16 03:06:12;;;;;;;;;;;;;;;;;;5061253;28;19913;-87
2021/12/16 03:08:38;;;;;;;;;;;;;;;;;;5086120;28;19956;-87
2021/12/16 03:11:31;;;;;;;;;;;;;;;;;;5084751;28;20291;-87
2021/12/16 03:14:20;;;;;;;;;;;;;;;;;;5071349;28;19919;-87
2021/12/16 03:19:57;;;;;;;;;;;;;;;;;;5060676;28;20007;-86
2021/12/16 03:22:10;;;;;;;;;;;;;;;;;;5067500;28;19992;-86
2021/12/16 03:25:01;;;;;;;;;;;;;;;;;;5078506;28;20249;-85
2021/12/16 03:27:46;;;;;;;;;;;;;;;;;;5073016;28;19912;-86
2021/12/16 03:33:52;;;;;;;;;;;;;;;;;;5069450;28;19970;-85
2021/12/16 03:36:03;;;;;;;;;;;;;;;;;;5065915;28;20314;-86
2021/12/16 03:38:27;;;;;;;;;;;;;;;;;;5071812;28;20073;-86
2021/12/16 03:40:55;;;;;;;;;;;;;;;;;;5071957;28;19912;-84
2021/12/16 03:43:20;;;;;;;;;;;;;;;;;;5075689;28;19974;-85
2021/12/16 03:48:35;;;;;;;;;;;;;;;;;;5067768;28;19923;-85
2021/12/16 03:51:02;;;;;;;;;;;;;;;;;;5073045;28;20246;-85
2021/12/16 03:53:27;;;;;;;;;;;;;;;;;;5068818;28;20383;-85
2021/12/16 03:55:53;;;;;;;;;;;;;;;;;;5061197;28;19916;-86
2021/12/16 03:58:19;;;;;;;;;;;;;;;;;;5070257;28;19912;-87
2021/12/16 04:00:50;;;;;;;;;;;;;;;;;;5071013;28;19919;-85
2021/12/16 04:03:16;;;;;;;;;;;;;;;;;;5065676;28;20368;-85
2021/12/16 04:05:42;;;;;;;;;;;;;;;;;;5068312;28;20049;-85
2021/12/16 04:08:08;;;;;;;;;;;;;;;;;;5078056;28;19916;-85
2021/12/16 04:10:42;;;;;;;;;;;;;;;;;;5066876;28;19912;-86
2021/12/16 04:13:08;;;;;;;;;;;;;;;;;;5069734;28;19917;-86
2021/12/16 04:15:34;;;;;;;;;;;;;;;;;;5072611;28;20386;-85
2021/12/16 04:17:59;;;;;;;;;;;;;;;;;;5065884;28;19927;-86
2021/12/16 04:20:25;;;;;;;;;;;;;;;;;;5062577;28;19982;-85
2021/12/16 04:22:52;;;;;;;;;;;;;;;;;;5067933;28;19912;-86
2021/12/16 04:25:22;;;;;;;;;;;;;;;;;;5080807;28;20299;-86
2021/12/16 04:27:48;;;;;;;;;;;;;;;;;;5066898;28;20019;-85
2021/12/16 04:30:15;;;;;;;;;;;;;;;;;;5069369;28;19916;-85
2021/12/16 04:32:41;;;;;;;;;;;;;;;;;;5058541;28;20265;-86
2021/12/16 04:35:07;;;;;;;;;;;;;;;;;;5067318;28;19974;-85
2021/12/16 04:37:33;;;;;;;;;;;;;;;;;;5080751;28;19916;-85
2021/12/16 04:40:00;;;;;;;;;;;;;;;;;;5069174;28;19912;-85
2021/12/16 04:42:26;;;;;;;;;;;;;;;;;;5069809;28;19939;-86
2021/12/16 04:44:52;;;;;;;;;;;;;;;;;;5064862;28;19917;-87
2021/12/16 04:47:17;;;;;;;;;;;;;;;;;;5059875;28;19940;-87
2021/12/16 04:49:43;;;;;;;;;;;;;;;;;;5057585;28;19974;-89
2021/12/16 04:52:10;;;;;;;;;;;;;;;;;;5070454;28;19912;-87
2021/12/16 04:54:39;;;;;;;;;;;;;;;;;;5083085;28;19919;-89
2021/12/16 04:57:05;;;;;;;;;;;;;;;;;;5063792;28;20014;-87
2021/12/16 04:59:33;;;;;;;;;;;;;;;;;;5067633;28;20367;-86
2021/12/16 05:02:01;;;;;;;;;;;;;;;;;;5062271;28;19919;-87
2021/12/16 05:04:27;;;;;;;;;;;;;;;;;;5068046;28;19920;-87
2021/12/16 05:06:52;;;;;;;;;;;;;;;;;;5064204;28;19923;-87
2021/12/16 05:09:55;;;;;;;;;;;;;;;;;;5068988;28;20446;-85
2021/12/16 05:12:05;;;;;;;;;;;;;;;;;;5060949;28;19927;-87
2021/12/16 05:14:30;;;;;;;;;;;;;;;;;;5062398;28;19916;-86
2021/12/16 05:16:58;;;;;;;;;;;;;;;;;;5061966;28;20415;-87
2021/12/16 05:19:24;;;;;;;;;;;;;;;;;;5067250;28;19923;-87
2021/12/16 05:24:13;;;;;;;;;;;;;;;;;;5070068;28;19912;-85
2021/12/16 05:24:41;;;;;;;;;;;;;;;;;;5071498;28;19920;-86
2021/12/16 05:27:07;;;;;;;;;;;;;;;;;;5063506;28;19974;-85
2021/12/16 05:29:33;;;;;;;;;;;;;;;;;;5062908;28;19916;-85
2021/12/16 05:31:58;;;;;;;;;;;;;;;;;;5062601;28;20347;-85
2021/12/16 05:34:24;;;;;;;;;;;;;;;;;;5067155;28;19913;-85
2021/12/16 05:36:49;;;;;;;;;;;;;;;;;;5063099;28;19912;-85
2021/12/16 05:39:18;;;;;;;;;;;;;;;;;;5067350;28;19920;-85
2021/12/16 05:41:43;;;;;;;;;;;;;;;;;;5066957;28;19912;-85
2021/12/16 05:44:09;;;;;;;;;;;;;;;;;;5065586;28;20444;-87
2021/12/16 05:46:35;;;;;;;;;;;;;;;;;;5061973;28;19969;-84
2021/12/16 05:49:03;;;;;;;;;;;;;;;;;;5072182;28;19916;-85
2021/12/16 05:51:30;;;;;;;;;;;;;;;;;;5070096;28;20286;-85
2021/12/16 05:53:56;;;;;;;;;;;;;;;;;;5064015;28;20396;-86
2021/12/16 05:56:21;;;;;;;;;;;;;;;;;;5068946;28;19916;-85
2021/12/16 05:58:47;;;;;;;;;;;;;;;;;;5074240;28;20357;-86
2021/12/16 06:01:17;;;;;;;;;;;;;;;;;;5070868;28;19985;-86
2021/12/16 06:03:43;;;;;;;;;;;;;;;;;;5072187;28;20293;-84
2021/12/16 06:06:08;;;;;;;;;;;;;;;;;;5065384;28;19916;-84
2021/12/16 06:08:34;;;;;;;;;;;;;;;;;;5084438;28;19917;-80
2021/12/16 06:13:39;;;;;;;;;;;;;;;;;;5067885;28;20330;-81
2021/12/16 06:27:09;;;;;;;;;;;;;;;;;;5065507;28;19930;-83
2021/12/16 06:29:36;;;;;;;;;;;;;;;;;;5065557;28;20360;-80
2021/12/16 06:32:05;;;;;;;;;;;;;;;;;;5065310;28;19919;-80
2021/12/16 06:34:31;;;;;;;;;;;;;;;;;;5067652;28;20280;-81
2021/12/16 06:36:59;;;;;;;;;;;;;;;;;;5066928;28;19923;-81
2021/12/16 06:39:24;;;;;;;;;;;;;;;;;;5087322;28;19927;-80
2021/12/16 06:41:50;;;;;;;;;;;;;;;;;;5086808;28;19912;-81
2021/12/16 06:44:37;;;;;;;;;;;;;;;;;;5067866;28;20279;-81
2021/12/16 06:47:08;;;;;;;;;;;;;;;;;;5082698;28;19912;-81
2021/12/16 06:49:35;;;;;;;;;;;;;;;;;;5069064;28;19917;-80
2021/12/16 06:52:04;;;;;;;;;;;;;;;;;;5067886;28;20234;-81
2021/12/16 06:54:38;;;;;;;;;;;;;;;;;;5070665;28;19999;-81
2021/12/16 06:57:18;;;;;;;;;;;;;;;;;;5066753;28;19954;-80
2021/12/16 06:59:55;;;;;;;;;;;;;;;;;;5084932;28;19916;-81
2021/12/16 07:05:19;;;;;;;;;;;;;;;;;;5038859;28;20377;-79
2021/12/16 07:07:44;;;;;;;;;;;;;;;;;;5070818;28;20364;-80
2021/12/16 07:10:10;;;;;;;;;;;;;;;;;;5074264;28;19920;-78
2021/12/16 07:12:37;;;;;;;;;;;;;;;;;;5085476;28;19920;-83
2021/12/16 07:15:04;;;;;;;;;;;;;;;;;;5070932;28;19909;-81
2021/12/16 07:17:30;;;;;;;;;;;;;;;;;;5065883;28;20710;-82
2021/12/16 07:21:20;;;;;;;12.63;6.40;;;;;;;;;;5129877;27;20429;-84
2021/12/16 07:23:45;;;;;;;13.38;7.32;;;;;;;;;;5129609;27;20028;-83
2021/12/16 07:26:11;;;;;;;13.75;8.18;;;;;;;;;;5126728;27;20033;-84
2021/12/16 07:28:37;;;;;;;19.48;10.00;;;;;;;;;;5067789;28;20039;-86
2021/12/16 07:31:02;;;;;;;21.98;11.63;;;;;;;;;;5063821;28;20385;-81
2021/12/16 07:33:28;;;;;;;19.63;10.25;;;;;;;;;;5064880;28;20052;-80
2021/12/16 07:35:56;;;;;;;16.60;7.40;;;;;;;;;;5080193;28;20024;-82
2021/12/16 07:38:23;;;;;;;16.17;9.25;;;;;;;;;;5063043;28;20032;-82
2021/12/16 07:40:51;;;;;;;14.52;8.55;;;;;;;;;;5057313;28;20091;-82
2021/12/16 07:43:41;;;;;;;14.10;8.48;;;;;;;;;;5065729;28;20036;-82
2021/12/16 07:46:11;;;;;;;10.48;6.97;;;;;;;;;;5063090;28;20701;-82
2021/12/16 07:48:37;;;;;;;;;;;;;;;;;;5064559;28;20035;-82
2021/12/16 07:51:05;;;;;;;9.00;6.60;;;;;;;;;;5059282;28;20280;-82
2021/12/16 07:53:31;;;;;;;10.88;7.07;;;;;;;;;;5063262;28;20024;-82
2021/12/16 07:55:57;;;;;;;12.98;7.47;;;;;;;;;;5059909;28;20025;-81
2021/12/16 07:58:23;;;;;;;14.23;7.45;;;;;;;;;;5064466;28;20036;-81
2021/12/16 08:00:50;;;;;;;16.63;9.25;;;;;;;;;;5062134;28;20473;-83
2021/12/16 08:03:17;;;;;;;23.00;10.07;;;;;;;;;;5064886;28;20040;-83
2021/12/16 08:05:50;;;;;;;6.35;4.88;;;;;;;;;;5061643;28;20472;-83
2021/12/16 08:08:16;;;;;;;7.95;5.35;;;;;;;;;;5067198;28;20028;-81
2021/12/16 08:10:42;;;;;;;7.55;4.57;;;;;;;;;;5063165;28;20336;-81
2021/12/16 08:13:07;;;;;;;7.63;4.80;;;;;;;;;;5062746;28;20055;-80
2021/12/16 08:15:33;;;;;;;8.52;5.22;;;;;;;;;;5059384;28;20025;-80
2021/12/16 08:17:58;;;;;;;5.43;3.60;;;;;;;;;;5055696;28;20357;-81
2021/12/16 08:20:24;;;;;;;9.68;5.05;;;;;;;;;;5059101;28;20048;-80
2021/12/16 08:22:52;;;;;;;7.47;5.25;;;;;;;;;;5055477;28;20023;-80
2021/12/16 08:25:21;;;;;;;7.90;4.05;;;;;;;;;;5057750;28;20037;-79
2021/12/16 08:27:48;;;;;;;7.77;4.63;;;;;;;;;;5061052;28;20102;-80
2021/12/16 08:30:17;;;;;;;6.90;4.70;;;;;;;;;;5058081;28;20547;-80
2021/12/16 08:32:43;;;;;;;10.60;5.88;;;;;;;;;;5044813;28;20033;-80
2021/12/16 08:35:09;;;;;;;7.57;4.60;;;;;;;;;;5043955;28;20112;-80
2021/12/16 08:37:35;;;;;;;9.77;5.22;;;;;;;;;;5038931;28;20104;-80
2021/12/16 08:40:02;;;;;;;7.25;4.80;;;;;;;;;;5050683;28;20076;-80
2021/12/16 08:42:28;;;;;;;7.18;5.05;;;;;;;;;;5049446;28;20111;-81
2021/12/16 08:44:53;;;;;;;7.53;4.88;;;;;;;;;;5050387;28;20159;-80
2021/12/16 08:47:19;;;;;;;8.05;4.43;;;;;;;;;;5050054;28;20485;-82
2021/12/16 08:49:46;;;;;;;5.07;3.45;;;;;;;;;;5048762;28;20044;-82
2021/12/16 08:52:16;;;;;;;6.72;5.05;;;;;;;;;;5043695;28;20025;-80
2021/12/16 08:54:43;;;;;;;;;;;;;;;;;;5049780;28;20073;-82
2021/12/16 08:57:10;;;;;;;6.15;3.22;;;;;;;;;;5043967;28;19912;-82
2021/12/16 08:59:36;;;;;;;5.53;3.85;;;;;;;;;;5050038;28;20469;-80
2021/12/16 09:02:03;;;;;;;7.50;4.95;;;;;;;;;;5045667;28;20037;-79
2021/12/16 09:04:29;;;;;;;7.45;5.00;;;;;;;;;;5044640;28;20465;-80
2021/12/16 09:06:58;;;;;;;6.70;4.55;;;;;;;;;;5043054;28;20087;-80
2021/12/16 09:09:24;;;;;;;6.97;4.60;;;;;;;;;;5049281;28;20025;-79
2021/12/16 09:12:47;;;;;;;10.82;5.25;;;;;;;;;;5044112;28;20025;-80
2021/12/16 09:14:43;;;;;;;11.13;4.53;;;;;;;;;;5045177;28;20048;-80
2021/12/16 09:17:14;;;;;;;7.55;5.07;;;;;;;;;;5048283;28;20068;-79
2021/12/16 09:19:45;;;;;;;6.82;4.38;;;;;;;;;;5048738;28;20053;-80
2021/12/16 09:22:15;;;;;;;8.40;5.55;;;;;;;;;;5048116;28;20103;-79
2021/12/16 09:24:40;;;;;;;7.80;5.45;;;;;;;;;;5045319;28;20112;-81
2021/12/16 09:27:06;;;;;;;6.35;3.65;;;;;;;;;;5044374;28;20115;-80
2021/12/16 09:29:32;;;;;;;7.97;3.75;;;;;;;;;;5041049;28;20021;-80
2021/12/16 09:31:58;;;;;;;6.85;4.22;;;;;;;;;;5048039;28;20480;-79
2021/12/16 09:34:24;;;;;;;7.85;5.28;;;;;;;;;;5050504;28;20033;-79
2021/12/16 09:36:49;;;;;;;5.47;3.97;;;;;;;;;;5047941;28;20024;-79
2021/12/16 09:39:21;;;;;;;6.57;4.55;;;;;;;;;;5050547;28;20465;-79
2021/12/16 09:41:49;;;;;;;6.00;4.50;;;;;;;;;;5047593;28;20025;-79
2021/12/16 09:44:16;;;;;;;6.93;3.90;;;;;;;;;;5049369;28;20448;-80
2021/12/16 09:46:45;;;;;;;7.03;3.75;;;;;;;;;;5050141;28;20063;-80
2021/12/16 09:49:11;;;;;;;6.13;4.35;;;;;;;;;;5043415;28;20021;-79
2021/12/16 09:51:41;;;;;;;6.15;4.35;;;;;;;;;;5046878;28;20067;-79
2021/12/16 09:54:10;;;;;;;7.13;4.45;;;;;;;;;;5045865;28;20044;-79
2021/12/16 09:56:39;;;;;;;6.85;4.20;;;;;;;;;;5041054;28;20588;-78
2021/12/16 09:59:10;;;;;;;7.25;5.15;;;;;;;;;;5061353;28;20116;-80
2021/12/16 10:01:37;;;;;;;7.28;4.30;;;;;;;;;;5048274;28;20064;-79
2021/12/16 10:04:06;;;;;;;4.85;4.07;;;;;;;;;;5058415;28;20025;-79
2021/12/16 10:06:34;;;;;;;6.40;4.40;;;;;;;;;;5063814;28;20020;-80
2021/12/16 10:09:03;;;;;;;5.85;3.70;;;;;;;;;;5047336;28;20029;-80
2021/12/16 10:11:28;;;;;;;5.72;3.47;;;;;;;;;;5046908;28;20457;-79
2021/12/16 10:19:07;;;;;;;8.55;4.63;;;;;;;;;;5039818;28;20515;-79
2021/12/16 10:21:32;;;;;;;8.00;3.90;;;;;;;;;;5037950;28;20029;-80
2021/12/16 10:23:58;;;;;;;6.90;4.75;;;;;;;;;;5043185;28;20384;-79
2021/12/16 10:26:25;;;;;;;6.07;3.53;;;;;;;;;;5040740;28;20067;-78
2021/12/16 10:28:54;;;;;;;5.88;4.13;;;;;;;;;;5037635;28;20025;-81
2021/12/16 10:31:24;;;;;;;6.20;4.50;;;;;;;;;;5044847;28;20083;-79
2021/12/16 10:34:05;;;;;;;9.05;4.95;;;;;;;;;;5042518;28;20028;-79
2021/12/16 10:36:37;;;;;;;7.35;5.07;;;;;;;;;;5031740;28;20053;-80
2021/12/16 10:39:12;;;;;;;8.10;4.00;;;;;;;;;;5039097;28;20453;-79
2021/12/16 10:41:40;;;;;;;5.70;3.88;;;;;;;;;;5047554;28;20048;-79
2021/12/16 10:44:19;;;;;;;7.45;4.15;;;;;;;;;;5048375;28;20393;-79
2021/12/16 10:47:00;;;;;;;6.65;3.92;;;;;;;;;;5050018;28;20029;-80
2021/12/16 10:49:31;;;;;;;6.07;4.82;;;;;;;;;;5044682;28;20029;-79
2021/12/16 10:52:02;;;;;;;10.43;5.28;;;;;;;;;;5033084;28;20021;-80
2021/12/16 10:54:38;;;;;;;6.88;5.07;;;;;;;;;;5044597;28;20487;-79
2021/12/16 10:57:09;;;;;;;6.57;4.90;;;;;;;;;;5046987;28;20100;-81
2021/12/16 10:59:38;;;;;;;6.38;3.58;;;;;;;;;;5050696;28;20024;-80
2021/12/16 11:02:14;;;;;;;8.40;5.47;;;;;;;;;;5048144;28;20070;-80
2021/12/16 11:04:44;;;;;;;5.75;4.30;;;;;;;;;;5051115;28;20021;-79
2021/12/16 11:07:19;;;;;;;6.75;4.40;;;;;;;;;;5047461;28;20043;-79
2021/12/16 11:10:09;;;;;;;7.53;3.72;;;;;;;;;;5045938;28;20538;-79
2021/12/16 11:12:41;;;;;;;7.20;4.50;;;;;;;;;;5048727;28;20036;-79
2021/12/16 11:15:29;;;;;;;6.65;4.50;;;;;;;;;;5045869;28;20037;-78
2021/12/16 11:18:02;;;;;;;9.07;6.35;;;;;;;;;;5049506;28;20091;-78
2021/12/16 11:20:45;;;;;;;8.82;5.70;;;;;;;;;;5049990;28;20045;-80
2021/12/16 11:23:17;;;;;;;8.40;5.05;;;;;;;;;;5045627;28;20034;-80
2021/12/16 11:25:52;;;;;;;7.35;4.18;;;;;;;;;;5033972;28;20492;-78
2021/12/16 11:28:21;;;;;;;7.13;5.07;;;;;;;;;;5050413;28;20510;-79
2021/12/16 11:30:54;;;;;;;7.47;5.10;;;;;;;;;;5049986;28;20021;-80
2021/12/16 11:33:39;;;;;;;8.82;5.22;;;;;;;;;;5046563;28;20104;-80
2021/12/16 11:36:14;;;;;;;10.02;6.10;;;;;;;;;;5049108;28;20029;-79
2021/12/16 11:38:48;;;;;;;7.88;5.15;;;;;;;;;;5043793;28;20123;-79
2021/12/16 11:41:24;;;;;;;9.63;6.88;;;;;;;;;;5050068;28;20078;-78
2021/12/16 11:44:06;;;;;;;9.13;5.10;;;;;;;;;;5050031;28;20423;-79
2021/12/16 11:46:51;;;;;;;8.52;5.03;;;;;;;;;;5049290;28;20059;-79
2021/12/16 11:49:40;;;;;;;7.35;4.68;;;;;;;;;;5043652;28;20465;-79
2021/12/16 11:52:09;;;;;;;7.03;5.45;;;;;;;;;;5045421;28;20362;-78
2021/12/16 11:54:49;;;;;;;7.22;2.97;;;;;;;;;;5050259;28;20029;-79
2021/12/16 11:57:20;;;;;;;5.45;3.95;;;;;;;;;;5047744;28;20377;-79
2021/12/16 12:00:09;;;;;;;7.47;4.70;;;;;;;;;;5048598;28;20037;-79
2021/12/16 12:02:38;;;;;;;8.00;5.15;;;;;;;;;;5043697;28;20028;-79
2021/12/16 12:05:22;;;;;;;6.57;4.20;;;;;;;;;;5047952;28;20199;-79
2021/12/16 12:07:49;;;;;;;7.05;4.45;;;;;;;;;;5052421;28;20621;-79
2021/12/16 12:10:22;;;;;;;6.78;3.95;;;;;;;;;;5048212;28;20029;-79
2021/12/16 12:12:49;;;;;;;6.50;5.63;;;;;;;;;;5051660;28;20488;-79
2021/12/16 12:15:18;;;;;;;13.48;6.82;;;;;;;;;;5052492;28;20472;-79
2021/12/16 12:17:55;;;;;;;6.90;5.43;;;;;;;;;;5051369;28;20047;-79
2021/12/16 12:20:27;;;;;;;5.90;4.35;;;;;;;;;;5053483;28;20067;-79
2021/12/16 12:22:53;;;;;;;8.68;5.38;;;;;;;;;;5050998;28;20059;-78
2021/12/16 12:25:19;;;;;;;6.53;5.43;;;;;;;;;;5053757;28;20060;-79
2021/12/16 12:27:45;;;;;;;6.47;4.38;;;;;;;;;;5053383;28;20051;-78
2021/12/16 12:30:12;;;;;;;8.30;5.45;;;;;;;;;;5052052;28;20482;-79
2021/12/16 12:32:40;;;;;;;9.27;5.30;;;;;;;;;;5052531;28;20033;-79
2021/12/16 12:35:15;;;;;;;6.85;5.05;;;;;;;;;;5053703;28;20488;-79
2021/12/16 12:37:44;;;;;;;6.63;4.85;;;;;;;;;;5051806;28;20020;-79
2021/12/16 12:40:23;;;;;;;6.15;4.25;;;;;;;;;;5051742;28;20056;-78
2021/12/16 12:42:51;;;;;;;7.43;4.72;;;;;;;;;;5047898;28;20623;-79
2021/12/16 12:45:21;;;;;;;8.60;5.60;;;;;;;;;;5051338;28;20542;-79
2021/12/16 12:47:51;;;;;;;7.97;5.07;;;;;;;;;;5048513;28;20078;-78
2021/12/16 12:50:18;;;;;;;;;;;;;;;;;;5037463;28;20059;-79
2021/12/16 12:52:46;;;;;;;8.10;5.18;;;;;;;;;;5046732;28;20353;-78
2021/12/16 12:55:32;;;;;;;11.00;7.78;;;;;;;;;;5053070;28;20389;-78
2021/12/16 12:58:12;;;;;;;9.75;6.72;;;;;;;;;;5051664;28;20017;-79
2021/12/16 13:01:02;;;;;;;7.22;4.18;;;;;;;;;;5050260;28;20040;-78
2021/12/16 13:03:35;;;;;;;9.52;6.40;;;;;;;;;;5050708;28;20405;-80
2021/12/16 13:06:04;;;;;;;10.27;6.95;;;;;;;;;;5053027;28;20024;-78
2021/12/16 13:08:43;;;;;;;12.80;6.40;;;;;;;;;;5049023;28;20079;-78
2021/12/16 13:11:12;;;;;;;9.38;6.18;;;;;;;;;;5052931;28;20041;-78
2021/12/16 13:14:09;;;;;;;9.10;4.78;;;;;;;;;;5052663;28;20063;-78
2021/12/16 13:26:05;;;;;;;7.45;4.97;;;;;;;;;;5036390;28;20049;-78
2021/12/16 13:31:08;;;;;;;10.48;6.70;;;;;;;;;;5042026;28;20025;-79
2021/12/16 13:33:54;;;;;;;12.13;8.48;;;;;;;;;;5058564;28;20053;-79
2021/12/16 13:36:57;;;;;;;12.20;7.50;;;;;;;;;;5034143;28;20396;-78
2021/12/16 13:39:26;;;;;;;9.13;5.93;;;;;;;;;;5037213;28;20577;-78
2021/12/16 13:42:03;;;;;;;13.23;9.43;;;;;;;;;;5034373;28;20039;-79
2021/12/16 13:45:04;;;;;;;14.32;8.65;;;;;;;;;;5043568;28;20048;-80
2021/12/16 13:47:44;;;;;;;10.85;6.20;;;;;;;;;;5051673;28;20035;-79
2021/12/16 14:00:19;;;;;;;12.18;6.85;;;;;;;;;;5046803;28;20128;-80
2021/12/16 14:02:52;;;;;;;10.65;7.05;;;;;;;;;;5041787;28;20039;-80
2021/12/16 14:05:34;;;;;;;11.68;6.85;;;;;;;;;;5046620;28;20024;-79
2021/12/16 14:08:07;;;;;;;10.73;6.55;;;;;;;;;;5037495;28;20472;-79
2021/12/16 14:10:42;;;;;;;14.27;7.85;;;;;;;;;;5043166;28;20028;-80
2021/12/16 14:31:06;;;;;;;13.60;7.47;;;;;;;;;;5042788;28;20083;-79
2021/12/16 14:38:12;;;;;;;18.23;10.52;;;;;;;;;;5041579;28;20036;-83
2021/12/16 14:41:05;;;;;;;18.85;12.57;;;;;;;;;;5044515;28;20021;-83
2021/12/16 14:46:26;;;;;;;14.25;9.43;;;;;;;;;;5037246;28;20471;-85
2021/12/16 14:48:52;;;;;;;13.68;8.35;;;;;;;;;;5042481;28;20021;-83
2021/12/16 14:51:18;;;;;;;14.55;9.55;;;;;;;;;;5058096;28;20048;-83
2021/12/16 14:53:54;;;;;;;14.27;10.18;;;;;;;;;;5050208;28;20083;-82
2021/12/16 14:56:41;;;;;;;18.60;11.57;;;;;;;;;;5039041;28;20029;-82
2021/12/16 14:59:13;;;;;;;34.42;16.13;;;;;;;;;;5045450;28;20047;-82
2021/12/16 15:01:43;;;;;;;16.15;7.82;;;;;;;;;;5043798;28;20053;-84
2021/12/16 15:04:15;;;;;;;14.30;9.38;;;;;;;;;;5048087;28;20708;-85
2021/12/16 15:07:03;;;;;;;14.45;8.93;;;;;;;;;;5061529;28;20033;-84
2021/12/16 15:09:33;;;;;;;16.17;9.57;;;;;;;;;;5036131;28;20021;-84
2021/12/16 15:12:12;;;;;;;14.25;8.52;;;;;;;;;;5048203;28;20025;-83
2021/12/16 15:39:55;;;;;;;14.25;7.88;;;;;;;;;;5039509;28;20091;-86
2021/12/16 15:45:17;;;;;;;17.33;10.15;;;;;;;;;;5045725;28;20067;-84
2021/12/16 15:47:51;;;;;;;18.90;11.68;;;;;;;;;;5040323;28;20040;-82
2021/12/16 15:50:21;;;;;;;15.70;9.75;;;;;;;;;;5046952;28;20492;-79
2021/12/16 15:52:49;;;;;;;17.45;10.98;;;;;;;;;;5049136;28;20099;-79
2021/12/16 15:55:28;;;;;;;13.20;8.55;;;;;;;;;;5042833;28;20029;-79
2021/12/16 15:57:59;;;;;;;15.10;8.85;;;;;;;;;;5046341;28;20024;-81
2021/12/16 16:00:25;;;;;;;21.33;12.88;;;;;;;;;;5040426;28;20025;-83
2021/12/16 16:02:55;;;;;;;23.05;13.23;;;;;;;;;;5066891;28;20028;-84
2021/12/16 16:05:21;;;;;;;26.45;18.23;;;;;;;;;;5045099;28;20126;-83
2021/12/16 16:07:46;;;;;;;17.45;11.40;;;;;;;;;;5046908;28;20053;-87
2021/12/16 16:10:15;;;;;;;24.75;14.73;;;;;;;;;;5054875;28;20028;-84
2021/12/16 16:12:41;;;;;;;23.90;13.32;;;;;;;;;;5046926;28;20103;-85
2021/12/16 16:15:18;;;;;;;18.23;11.55;;;;;;;;;;5046365;28;20124;-82
2021/12/16 16:18:02;;;;;;;20.90;10.32;;;;;;;;;;5047131;28;20032;-84
2021/12/16 16:20:31;;;;;;;22.10;13.10;;;;;;;;;;5044011;28;20370;-82
2021/12/16 16:22:56;;;;;;;22.27;12.90;;;;;;;;;;5053522;28;20053;-85
2021/12/16 16:25:22;;;;;;;16.45;10.35;;;;;;;;;;5053598;28;21171;-81
2021/12/16 16:27:48;;;;;;;17.77;11.05;;;;;;;;;;5052603;28;20477;-85
2021/12/16 16:30:15;;;;;;;16.83;9.43;;;;;;;;;;5062155;28;20559;-83
2021/12/16 16:33:07;;;;;;;12.73;7.82;;;;;;;;;;5051067;28;20064;-82
2021/12/16 16:35:36;;;;;;;18.38;10.93;;;;;;;;;;5045909;28;20036;-79
2021/12/16 16:38:15;;;;;;;17.40;10.38;;;;;;;;;;5040566;28;20029;-79
2021/12/16 16:40:45;;;;;;;16.27;10.35;;;;;;;;;;5036523;28;20027;-78
2021/12/16 16:43:21;;;;;;;13.68;8.50;;;;;;;;;;5047724;28;20037;-80
2021/12/16 16:45:53;;;;;;;12.85;8.50;;;;;;;;;;5041176;28;20053;-78
2021/12/16 16:48:44;;;;;;;13.32;9.13;;;;;;;;;;5036237;28;20034;-79
2021/12/16 16:51:15;;;;;;;12.70;7.05;;;;;;;;;;5042516;28;20123;-78
2021/12/16 16:53:49;;;;;;;16.10;9.65;;;;;;;;;;5045102;28;20012;-80
2021/12/16 16:56:15;;;;;;;14.82;8.80;;;;;;;;;;5047181;28;20025;-80
2021/12/16 16:58:40;;;;;;;10.95;7.70;;;;;;;;;;5050419;28;20488;-79
2021/12/16 17:01:06;;;;;;;18.60;10.85;;;;;;;;;;5044510;28;20119;-80
2021/12/16 17:03:31;;;;;;;13.02;7.47;;;;;;;;;;5050703;28;20083;-80
2021/12/16 17:06:02;;;;;;;17.33;10.77;;;;;;;;;;5045680;28;20048;-79
2021/12/16 17:08:39;;;;;;;15.13;11.15;;;;;;;;;;5045731;28;20025;-80
2021/12/16 17:11:15;;;;;;;12.52;8.40;;;;;;;;;;5039259;28;20055;-79
2021/12/16 17:13:58;;;;;;;15.18;10.13;;;;;;;;;;5048617;28;20040;-80
2021/12/16 17:19:13;;;;;;;11.98;6.25;;;;;;;;;;5044043;28;20669;-79
2021/12/16 17:21:40;;;;;;;15.65;9.77;;;;;;;;;;5047078;28;20100;-83
2021/12/16 17:24:13;;;;;;;14.38;8.43;;;;;;;;;;5049117;28;20025;-83
2021/12/16 17:26:51;;;;;;;14.65;8.57;;;;;;;;;;5048111;28;20502;-84
2021/12/16 17:29:59;;;;;;;21.92;11.77;;;;;;;;;;5043969;28;20025;-83
2021/12/16 17:32:28;;;;;;;22.85;13.93;;;;;;;;;;5029049;28;20418;-83
2021/12/16 17:35:11;;;;;;;24.08;13.45;;;;;;;;;;5040354;28;20036;-82
2021/12/16 17:37:44;;;;;;;18.13;10.73;;;;;;;;;;5048417;28;20025;-82
2021/12/16 17:40:17;;;;;;;11.60;5.72;;;;;;;;;;5049248;28;20017;-80
2021/12/16 17:42:51;;;;;;;14.63;8.77;;;;;;;;;;5047330;28;20026;-80
2021/12/16 17:45:21;;;;;;;16.02;9.23;;;;;;;;;;5048115;28;20033;-84
2021/12/16 17:47:49;;;;;;;18.20;10.90;;;;;;;;;;5053564;28;20468;-80
2021/12/16 17:50:23;;;;;;;14.35;9.57;;;;;;;;;;5040874;28;20111;-80
2021/12/16 17:52:50;;;;;;;16.00;8.88;;;;;;;;;;5040591;28;20037;-81
2021/12/16 17:55:20;;;;;;;15.98;9.20;;;;;;;;;;5042826;28;20035;-81
2021/12/16 17:57:47;;;;;;;;;;;;;;;;;;5036849;28;20389;-82
2021/12/16 18:00:37;;;;;;;11.40;7.55;;;;;;;;;;5041514;28;20285;-81
2021/12/16 18:03:04;;;;;;;14.90;8.43;;;;;;;;;;5040302;28;20163;-80
2021/12/16 18:05:41;;;;;;;18.75;12.40;;;;;;;;;;5038444;28;20484;-79
2021/12/16 18:08:07;;;;;;;18.60;10.40;;;;;;;;;;5038135;28;20025;-82
2021/12/16 18:10:32;;;;;;;19.20;10.85;;;;;;;;;;5037836;28;20059;-82
2021/12/16 18:12:58;;;;;;;15.65;8.93;;;;;;;;;;5042254;28;20101;-81
2021/12/16 18:15:27;;;;;;;17.15;8.55;;;;;;;;;;5042266;28;20542;-82
2021/12/16 18:17:58;;;;;;;19.70;9.65;;;;;;;;;;5037181;28;20495;-82
2021/12/16 18:20:32;;;;;;;20.27;10.80;;;;;;;;;;5041399;28;20198;-80
2021/12/16 18:23:01;;;;;;;13.82;6.60;;;;;;;;;;5037930;28;20380;-81
2021/12/16 18:25:35;;;;;;;13.82;8.30;;;;;;;;;;5034261;28;20025;-81
2021/12/16 18:28:18;;;;;;;12.00;8.13;;;;;;;;;;5039541;28;20043;-80
2021/12/16 18:30:51;;;;;;;15.25;7.93;;;;;;;;;;5036111;28;20021;-82
2021/12/16 18:33:24;;;;;;;17.23;9.43;;;;;;;;;;5047872;28;20031;-79
2021/12/16 18:35:54;;;;;;;17.83;9.73;;;;;;;;;;5037267;28;20040;-80
2021/12/16 18:38:31;;;;;;;18.05;9.60;;;;;;;;;;5038279;28;20049;-81
2021/12/16 18:41:03;;;;;;;12.25;8.13;;;;;;;;;;5043492;28;20026;-80
2021/12/16 18:43:29;;;;;;;17.13;8.77;;;;;;;;;;5037437;28;20029;-82
2021/12/16 18:45:58;;;;;;;19.48;11.18;;;;;;;;;;5035249;28;20122;-81
2021/12/16 18:48:36;;;;;;;19.77;10.40;;;;;;;;;;5053959;28;20029;-80
2021/12/16 18:56:25;;;;;;;10.80;7.05;;;;;;;;;;5038865;28;20060;-79
2021/12/16 18:58:51;;;;;;;12.73;7.85;;;;;;;;;;5042840;28;20033;-80
2021/12/16 19:01:24;;;;;;;22.05;11.32;;;;;;;;;;5043682;28;20466;-80
2021/12/16 19:03:50;;;;;;;15.93;9.00;;;;;;;;;;5036878;28;20066;-81
2021/12/16 19:06:31;;;;;;;18.73;10.10;;;;;;;;;;5037729;28;20496;-81
2021/12/16 19:09:05;;;;;;;16.83;9.55;;;;;;;;;;5037886;28;20033;-80
2021/12/16 19:11:43;;;;;;;17.95;9.20;;;;;;;;;;5056202;28;20064;-79
2021/12/16 19:14:09;;;;;;;20.25;11.05;;;;;;;;;;5040861;28;20040;-80
2021/12/16 19:16:34;;;;;;;18.75;10.63;;;;;;;;;;5040612;28;20029;-81
2021/12/16 19:19:01;;;;;;;18.55;8.73;;;;;;;;;;5036268;28;20040;-80
2021/12/16 19:21:28;;;;;;;14.23;8.93;;;;;;;;;;5037789;28;20021;-81